首页
METAR-TAF:

METAR-TAF

机场 :

Sedalia, 密蘇里州, 美国

纬度: 38-42-44N, 经度: 093-10-28W, 海拔: 277米

当前天气观测

该预报发布于1小时和6分钟前的05:53 UTC
静风
温度 5°C
湿度 87%
气压 1020 hPa
能見度: 16.1公里
阴天层高于2400英尺

METAR: KDMO 050553Z AUTO 00000KT 10SM OVC024 05/03 A3013 RMK AO2 SLP207 T00500028 10056 20044 400610000 50001

时间: 01:59 (06:59 UTC)


TAF: 丢失

超过4000个机场的气象观测和天气预报(METAR&TAF报告)。

可查询的气象台以黄色和红色小点在地图上表示。

将鼠标移到小点上方,可查看气象台名称。

然后点击查看天气观测和预报。

如需切换地图:点击带黑十字的绿色按钮放大地图;点击带横线的绿色按钮缩小地图;或者点击绿色箭头查看邻近地区的地图。


METAR-TAF: